sensor_id;sensor_type;location;lat;lon;timestamp;P1;durP1;ratioP1;P2;durP2;ratioP2
25123;SDS011;13104;51.030;4.686;2023-05-10T00:01:04;25.50;;;15.30;;
25123;SDS011;13104;51.030;4.686;2023-05-10T00:03:30;25.80;;;15.73;;
25123;SDS011;13104;51.030;4.686;2023-05-10T00:05:56;23.48;;;15.52;;
25123;SDS011;13104;51.030;4.686;2023-05-10T00:08:22;24.13;;;15.57;;
25123;SDS011;13104;51.030;4.686;2023-05-10T00:10:49;26.30;;;15.75;;
25123;SDS011;13104;51.030;4.686;2023-05-10T00:13:15;26.05;;;15.32;;
25123;SDS011;13104;51.030;4.686;2023-05-10T00:15:42;24.85;;;15.18;;
25123;SDS011;13104;51.030;4.686;2023-05-10T00:18:08;26.95;;;16.67;;
25123;SDS011;13104;51.030;4.686;2023-05-10T00:20:34;27.70;;;15.40;;
25123;SDS011;13104;51.030;4.686;2023-05-10T00:23:01;30.80;;;16.17;;
25123;SDS011;13104;51.030;4.686;2023-05-10T00:25:27;26.52;;;14.32;;
25123;SDS011;13104;51.030;4.686;2023-05-10T00:27:53;28.95;;;15.32;;
25123;SDS011;13104;51.030;4.686;2023-05-10T00:30:22;25.33;;;14.82;;
25123;SDS011;13104;51.030;4.686;2023-05-10T00:32:48;30.50;;;14.43;;
25123;SDS011;13104;51.030;4.686;2023-05-10T00:35:15;23.55;;;14.13;;
25123;SDS011;13104;51.030;4.686;2023-05-10T00:37:41;24.08;;;14.30;;
25123;SDS011;13104;51.030;4.686;2023-05-10T00:40:07;28.42;;;14.07;;
25123;SDS011;13104;51.030;4.686;2023-05-10T00:42:33;25.95;;;13.80;;
25123;SDS011;13104;51.030;4.686;2023-05-10T00:44:59;26.67;;;13.52;;
25123;SDS011;13104;51.030;4.686;2023-05-10T00:47:26;24.60;;;13.88;;
25123;SDS011;13104;51.030;4.686;2023-05-10T00:49:52;23.23;;;13.52;;
25123;SDS011;13104;51.030;4.686;2023-05-10T00:52:19;27.10;;;14.10;;
25123;SDS011;13104;51.030;4.686;2023-05-10T00:54:45;28.02;;;14.25;;
25123;SDS011;13104;51.030;4.686;2023-05-10T00:57:13;29.23;;;14.10;;
25123;SDS011;13104;51.030;4.686;2023-05-10T00:59:39;24.77;;;13.50;;
25123;SDS011;13104;51.030;4.686;2023-05-10T01:02:06;28.02;;;13.43;;
25123;SDS011;13104;51.030;4.686;2023-05-10T01:04:32;32.35;;;14.10;;
25123;SDS011;13104;51.030;4.686;2023-05-10T01:06:58;26.27;;;13.68;;
25123;SDS011;13104;51.030;4.686;2023-05-10T01:09:24;24.02;;;13.48;;
25123;SDS011;13104;51.030;4.686;2023-05-10T01:11:51;28.27;;;14.52;;
25123;SDS011;13104;51.030;4.686;2023-05-10T01:14:18;28.98;;;14.60;;
25123;SDS011;13104;51.030;4.686;2023-05-10T01:16:44;29.08;;;15.20;;
25123;SDS011;13104;51.030;4.686;2023-05-10T01:27:07;25.27;;;14.30;;
25123;SDS011;13104;51.030;4.686;2023-05-10T01:29:58;37.35;;;14.93;;
25123;SDS011;13104;51.030;4.686;2023-05-10T01:32:29;29.75;;;14.57;;
25123;SDS011;13104;51.030;4.686;2023-05-10T01:35:02;30.70;;;15.13;;
25123;SDS011;13104;51.030;4.686;2023-05-10T01:37:37;28.50;;;15.05;;
25123;SDS011;13104;51.030;4.686;2023-05-10T01:40:10;25.45;;;14.88;;
25123;SDS011;13104;51.030;4.686;2023-05-10T01:42:40;27.80;;;15.25;;
25123;SDS011;13104;51.030;4.686;2023-05-10T01:45:31;33.28;;;15.38;;
25123;SDS011;13104;51.030;4.686;2023-05-10T01:48:13;30.45;;;16.08;;
25123;SDS011;13104;51.030;4.686;2023-05-10T01:50:41;32.58;;;16.67;;
25123;SDS011;13104;51.030;4.686;2023-05-10T01:53:09;31.85;;;16.92;;
25123;SDS011;13104;51.030;4.686;2023-05-10T01:55:39;30.80;;;16.55;;
25123;SDS011;13104;51.030;4.686;2023-05-10T01:58:08;33.63;;;16.65;;
25123;SDS011;13104;51.030;4.686;2023-05-10T02:00:36;31.80;;;16.75;;
25123;SDS011;13104;51.030;4.686;2023-05-10T02:03:06;31.15;;;16.38;;
25123;SDS011;13104;51.030;4.686;2023-05-10T02:05:33;32.67;;;16.58;;
25123;SDS011;13104;51.030;4.686;2023-05-10T02:08:00;35.03;;;17.13;;
25123;SDS011;13104;51.030;4.686;2023-05-10T02:10:27;31.38;;;17.65;;
25123;SDS011;13104;51.030;4.686;2023-05-10T02:12:54;38.08;;;17.40;;
25123;SDS011;13104;51.030;4.686;2023-05-10T02:15:22;33.42;;;17.42;;
25123;SDS011;13104;51.030;4.686;2023-05-10T02:17:49;36.83;;;17.60;;
25123;SDS011;13104;51.030;4.686;2023-05-10T02:20:16;34.95;;;18.10;;
25123;SDS011;13104;51.030;4.686;2023-05-10T02:22:44;40.95;;;18.27;;
25123;SDS011;13104;51.030;4.686;2023-05-10T02:25:11;31.35;;;17.70;;
25123;SDS011;13104;51.030;4.686;2023-05-10T02:27:40;29.50;;;16.58;;
25123;SDS011;13104;51.030;4.686;2023-05-10T02:30:07;33.90;;;18.33;;
25123;SDS011;13104;51.030;4.686;2023-05-10T02:32:33;39.05;;;18.05;;
25123;SDS011;13104;51.030;4.686;2023-05-10T02:35:00;38.25;;;18.40;;
25123;SDS011;13104;51.030;4.686;2023-05-10T02:37:27;35.67;;;18.05;;
25123;SDS011;13104;51.030;4.686;2023-05-10T02:39:55;34.28;;;17.73;;
25123;SDS011;13104;51.030;4.686;2023-05-10T02:42:23;33.95;;;19.10;;
25123;SDS011;13104;51.030;4.686;2023-05-10T02:44:52;33.65;;;19.50;;
25123;SDS011;13104;51.030;4.686;2023-05-10T02:47:18;34.55;;;19.02;;
25123;SDS011;13104;51.030;4.686;2023-05-10T02:49:45;35.28;;;18.92;;
25123;SDS011;13104;51.030;4.686;2023-05-10T02:52:11;33.10;;;19.20;;
25123;SDS011;13104;51.030;4.686;2023-05-10T02:54:45;37.33;;;19.10;;
25123;SDS011;13104;51.030;4.686;2023-05-10T02:57:15;34.08;;;18.73;;
25123;SDS011;13104;51.030;4.686;2023-05-10T02:59:44;38.17;;;20.10;;
25123;SDS011;13104;51.030;4.686;2023-05-10T03:02:14;32.30;;;18.75;;
25123;SDS011;13104;51.030;4.686;2023-05-10T03:04:40;36.58;;;18.67;;
25123;SDS011;13104;51.030;4.686;2023-05-10T03:07:06;39.40;;;20.17;;
25123;SDS011;13104;51.030;4.686;2023-05-10T03:09:33;33.60;;;18.70;;
25123;SDS011;13104;51.030;4.686;2023-05-10T03:17:00;34.97;;;18.95;;
25123;SDS011;13104;51.030;4.686;2023-05-10T03:19:32;43.85;;;20.42;;
25123;SDS011;13104;51.030;4.686;2023-05-10T03:22:03;33.78;;;19.40;;
25123;SDS011;13104;51.030;4.686;2023-05-10T03:24:30;37.83;;;20.35;;
25123;SDS011;13104;51.030;4.686;2023-05-10T03:26:56;40.50;;;21.92;;
25123;SDS011;13104;51.030;4.686;2023-05-10T03:29:25;39.28;;;20.38;;
25123;SDS011;13104;51.030;4.686;2023-05-10T03:31:51;36.10;;;20.25;;
25123;SDS011;13104;51.030;4.686;2023-05-10T03:34:22;40.75;;;22.25;;
25123;SDS011;13104;51.030;4.686;2023-05-10T03:36:49;33.53;;;19.42;;
25123;SDS011;13104;51.030;4.686;2023-05-10T03:39:15;37.20;;;21.65;;
25123;SDS011;13104;51.030;4.686;2023-05-10T03:41:41;38.72;;;23.00;;
25123;SDS011;13104;51.030;4.686;2023-05-10T03:44:07;42.05;;;23.20;;
25123;SDS011;13104;51.030;4.686;2023-05-10T03:46:34;51.10;;;23.02;;
25123;SDS011;13104;51.030;4.686;2023-05-10T03:49:00;43.15;;;24.08;;
25123;SDS011;13104;51.030;4.686;2023-05-10T03:51:26;44.85;;;23.60;;
25123;SDS011;13104;51.030;4.686;2023-05-10T03:53:56;45.53;;;25.95;;
25123;SDS011;13104;51.030;4.686;2023-05-10T03:56:22;48.40;;;24.80;;
25123;SDS011;13104;51.030;4.686;2023-05-10T03:58:48;50.38;;;25.40;;
25123;SDS011;13104;51.030;4.686;2023-05-10T04:01:14;46.45;;;25.17;;
25123;SDS011;13104;51.030;4.686;2023-05-10T04:03:40;48.08;;;25.38;;
25123;SDS011;13104;51.030;4.686;2023-05-10T04:06:06;48.60;;;25.33;;
25123;SDS011;13104;51.030;4.686;2023-05-10T04:08:35;50.92;;;26.45;;
25123;SDS011;13104;51.030;4.686;2023-05-10T04:11:08;50.00;;;25.40;;
25123;SDS011;13104;51.030;4.686;2023-05-10T04:13:35;46.13;;;25.90;;
25123;SDS011;13104;51.030;4.686;2023-05-10T04:16:02;50.22;;;25.35;;
25123;SDS011;13104;51.030;4.686;2023-05-10T04:18:28;44.95;;;24.25;;
25123;SDS011;13104;51.030;4.686;2023-05-10T04:20:54;45.33;;;23.92;;
25123;SDS011;13104;51.030;4.686;2023-05-10T04:23:20;49.28;;;26.50;;
25123;SDS011;13104;51.030;4.686;2023-05-10T04:25:47;49.63;;;25.30;;
25123;SDS011;13104;51.030;4.686;2023-05-10T04:28:13;48.45;;;25.88;;
25123;SDS011;13104;51.030;4.686;2023-05-10T04:30:39;47.38;;;26.13;;
25123;SDS011;13104;51.030;4.686;2023-05-10T04:33:05;45.28;;;26.67;;
25123;SDS011;13104;51.030;4.686;2023-05-10T04:35:31;49.85;;;25.42;;
25123;SDS011;13104;51.030;4.686;2023-05-10T04:37:59;49.75;;;26.55;;
25123;SDS011;13104;51.030;4.686;2023-05-10T04:40:25;43.38;;;24.88;;
25123;SDS011;13104;51.030;4.686;2023-05-10T04:42:51;52.20;;;27.92;;
25123;SDS011;13104;51.030;4.686;2023-05-10T04:45:17;57.03;;;29.45;;
25123;SDS011;13104;51.030;4.686;2023-05-10T04:47:44;64.20;;;30.58;;
25123;SDS011;13104;51.030;4.686;2023-05-10T04:50:10;66.40;;;32.75;;
25123;SDS011;13104;51.030;4.686;2023-05-10T04:52:36;66.75;;;33.42;;
25123;SDS011;13104;51.030;4.686;2023-05-10T04:55:02;64.18;;;32.83;;
25123;SDS011;13104;51.030;4.686;2023-05-10T04:57:29;65.65;;;32.50;;
25123;SDS011;13104;51.030;4.686;2023-05-10T04:59:55;62.67;;;32.95;;
25123;SDS011;13104;51.030;4.686;2023-05-10T05:02:21;67.20;;;32.88;;
25123;SDS011;13104;51.030;4.686;2023-05-10T05:04:48;78.07;;;35.03;;
25123;SDS011;13104;51.030;4.686;2023-05-10T05:07:14;78.13;;;35.45;;
25123;SDS011;13104;51.030;4.686;2023-05-10T05:09:40;77.53;;;34.45;;
25123;SDS011;13104;51.030;4.686;2023-05-10T05:12:06;84.57;;;36.95;;
25123;SDS011;13104;51.030;4.686;2023-05-10T05:14:33;78.55;;;37.38;;
25123;SDS011;13104;51.030;4.686;2023-05-10T05:16:59;78.47;;;35.75;;
25123;SDS011;13104;51.030;4.686;2023-05-10T05:19:25;77.68;;;35.58;;
25123;SDS011;13104;51.030;4.686;2023-05-10T05:21:52;84.30;;;37.28;;
25123;SDS011;13104;51.030;4.686;2023-05-10T05:24:18;80.32;;;37.30;;
25123;SDS011;13104;51.030;4.686;2023-05-10T05:26:44;77.53;;;37.70;;
25123;SDS011;13104;51.030;4.686;2023-05-10T05:29:10;77.05;;;36.28;;
25123;SDS011;13104;51.030;4.686;2023-05-10T05:31:36;94.70;;;36.17;;
25123;SDS011;13104;51.030;4.686;2023-05-10T05:34:02;84.75;;;38.83;;
25123;SDS011;13104;51.030;4.686;2023-05-10T05:36:29;85.10;;;40.83;;
25123;SDS011;13104;51.030;4.686;2023-05-10T05:38:56;89.40;;;39.17;;
25123;SDS011;13104;51.030;4.686;2023-05-10T05:41:22;92.50;;;41.80;;
25123;SDS011;13104;51.030;4.686;2023-05-10T05:43:49;89.15;;;41.80;;
25123;SDS011;13104;51.030;4.686;2023-05-10T05:46:15;93.28;;;40.08;;
25123;SDS011;13104;51.030;4.686;2023-05-10T05:48:41;82.38;;;37.38;;
25123;SDS011;13104;51.030;4.686;2023-05-10T05:51:08;81.53;;;37.83;;
25123;SDS011;13104;51.030;4.686;2023-05-10T05:53:34;84.03;;;39.08;;
25123;SDS011;13104;51.030;4.686;2023-05-10T05:56:00;74.15;;;36.60;;
25123;SDS011;13104;51.030;4.686;2023-05-10T05:58:26;74.07;;;36.97;;
25123;SDS011;13104;51.030;4.686;2023-05-10T06:00:52;80.72;;;36.22;;
25123;SDS011;13104;51.030;4.686;2023-05-10T06:03:19;70.43;;;34.55;;
25123;SDS011;13104;51.030;4.686;2023-05-10T06:05:45;70.45;;;34.85;;
25123;SDS011;13104;51.030;4.686;2023-05-10T06:08:11;76.05;;;35.05;;
25123;SDS011;13104;51.030;4.686;2023-05-10T06:10:38;67.15;;;33.75;;
25123;SDS011;13104;51.030;4.686;2023-05-10T06:13:04;65.20;;;34.53;;
25123;SDS011;13104;51.030;4.686;2023-05-10T06:15:30;64.50;;;33.42;;
25123;SDS011;13104;51.030;4.686;2023-05-10T06:17:57;69.75;;;32.90;;
25123;SDS011;13104;51.030;4.686;2023-05-10T06:20:23;65.72;;;35.13;;
25123;SDS011;13104;51.030;4.686;2023-05-10T06:22:50;67.05;;;33.05;;
25123;SDS011;13104;51.030;4.686;2023-05-10T06:25:16;64.68;;;32.58;;
25123;SDS011;13104;51.030;4.686;2023-05-10T06:27:43;64.30;;;31.15;;
25123;SDS011;13104;51.030;4.686;2023-05-10T06:30:09;55.97;;;30.55;;
25123;SDS011;13104;51.030;4.686;2023-05-10T06:32:36;56.83;;;30.95;;
25123;SDS011;13104;51.030;4.686;2023-05-10T06:35:02;57.13;;;29.33;;
25123;SDS011;13104;51.030;4.686;2023-05-10T06:37:28;58.35;;;29.33;;
25123;SDS011;13104;51.030;4.686;2023-05-10T06:39:55;57.08;;;30.67;;
25123;SDS011;13104;51.030;4.686;2023-05-10T06:42:21;55.33;;;29.23;;
25123;SDS011;13104;51.030;4.686;2023-05-10T06:44:48;56.03;;;29.33;;
25123;SDS011;13104;51.030;4.686;2023-05-10T06:47:15;59.05;;;31.02;;
25123;SDS011;13104;51.030;4.686;2023-05-10T06:49:41;52.78;;;29.65;;
25123;SDS011;13104;51.030;4.686;2023-05-10T06:52:07;55.00;;;29.42;;
25123;SDS011;13104;51.030;4.686;2023-05-10T06:54:33;51.67;;;29.27;;
25123;SDS011;13104;51.030;4.686;2023-05-10T06:57:00;57.63;;;29.58;;
25123;SDS011;13104;51.030;4.686;2023-05-10T06:59:28;62.92;;;28.75;;
25123;SDS011;13104;51.030;4.686;2023-05-10T07:01:54;50.38;;;28.15;;
25123;SDS011;13104;51.030;4.686;2023-05-10T07:04:20;48.78;;;27.23;;
25123;SDS011;13104;51.030;4.686;2023-05-10T07:06:46;52.63;;;28.13;;
25123;SDS011;13104;51.030;4.686;2023-05-10T07:09:12;48.13;;;26.73;;
25123;SDS011;13104;51.030;4.686;2023-05-10T07:11:39;52.13;;;28.10;;
25123;SDS011;13104;51.030;4.686;2023-05-10T07:14:05;49.65;;;29.30;;
25123;SDS011;13104;51.030;4.686;2023-05-10T07:16:31;54.20;;;28.48;;
25123;SDS011;13104;51.030;4.686;2023-05-10T07:18:58;53.88;;;28.23;;
25123;SDS011;13104;51.030;4.686;2023-05-10T07:21:24;49.72;;;27.63;;
25123;SDS011;13104;51.030;4.686;2023-05-10T07:23:53;53.55;;;28.35;;
25123;SDS011;13104;51.030;4.686;2023-05-10T07:26:19;47.97;;;26.92;;
25123;SDS011;13104;51.030;4.686;2023-05-10T07:28:46;48.60;;;26.13;;
25123;SDS011;13104;51.030;4.686;2023-05-10T07:31:12;44.08;;;26.50;;
25123;SDS011;13104;51.030;4.686;2023-05-10T07:33:38;45.40;;;24.60;;
25123;SDS011;13104;51.030;4.686;2023-05-10T07:36:05;48.95;;;26.73;;
25123;SDS011;13104;51.030;4.686;2023-05-10T07:38:31;47.38;;;25.50;;
25123;SDS011;13104;51.030;4.686;2023-05-10T07:40:57;42.55;;;24.73;;
25123;SDS011;13104;51.030;4.686;2023-05-10T07:43:23;46.85;;;26.00;;
25123;SDS011;13104;51.030;4.686;2023-05-10T07:45:49;42.40;;;25.73;;
25123;SDS011;13104;51.030;4.686;2023-05-10T07:48:15;48.20;;;25.58;;
25123;SDS011;13104;51.030;4.686;2023-05-10T07:50:41;44.05;;;25.02;;
25123;SDS011;13104;51.030;4.686;2023-05-10T07:53:07;43.53;;;24.45;;
25123;SDS011;13104;51.030;4.686;2023-05-10T07:55:34;41.20;;;23.67;;
25123;SDS011;13104;51.030;4.686;2023-05-10T07:58:00;38.60;;;23.48;;
25123;SDS011;13104;51.030;4.686;2023-05-10T08:00:26;40.08;;;23.35;;
25123;SDS011;13104;51.030;4.686;2023-05-10T08:02:52;40.88;;;23.92;;
25123;SDS011;13104;51.030;4.686;2023-05-10T08:05:18;41.50;;;24.92;;
25123;SDS011;13104;51.030;4.686;2023-05-10T08:07:44;39.90;;;23.85;;
25123;SDS011;13104;51.030;4.686;2023-05-10T08:10:11;41.45;;;24.50;;
25123;SDS011;13104;51.030;4.686;2023-05-10T08:12:37;38.28;;;22.10;;
25123;SDS011;13104;51.030;4.686;2023-05-10T08:15:03;41.70;;;22.55;;
25123;SDS011;13104;51.030;4.686;2023-05-10T08:17:30;36.50;;;23.23;;
25123;SDS011;13104;51.030;4.686;2023-05-10T08:19:56;38.38;;;23.35;;
25123;SDS011;13104;51.030;4.686;2023-05-10T08:22:22;40.65;;;22.92;;
25123;SDS011;13104;51.030;4.686;2023-05-10T08:24:48;37.13;;;23.10;;
25123;SDS011;13104;51.030;4.686;2023-05-10T08:27:14;38.95;;;22.08;;
25123;SDS011;13104;51.030;4.686;2023-05-10T08:29:40;37.33;;;23.05;;
25123;SDS011;13104;51.030;4.686;2023-05-10T08:32:06;37.78;;;22.38;;
25123;SDS011;13104;51.030;4.686;2023-05-10T08:34:32;38.00;;;23.05;;
25123;SDS011;13104;51.030;4.686;2023-05-10T08:36:58;36.28;;;23.17;;
25123;SDS011;13104;51.030;4.686;2023-05-10T08:39:25;45.38;;;21.90;;
25123;SDS011;13104;51.030;4.686;2023-05-10T08:41:51;38.97;;;22.75;;
25123;SDS011;13104;51.030;4.686;2023-05-10T08:44:19;41.35;;;22.27;;
25123;SDS011;13104;51.030;4.686;2023-05-10T08:46:46;36.40;;;21.20;;
25123;SDS011;13104;51.030;4.686;2023-05-10T08:49:18;35.70;;;20.92;;
25123;SDS011;13104;51.030;4.686;2023-05-10T08:51:50;34.35;;;21.38;;
25123;SDS011;13104;51.030;4.686;2023-05-10T08:54:17;37.05;;;22.08;;
25123;SDS011;13104;51.030;4.686;2023-05-10T08:56:44;41.08;;;21.70;;
25123;SDS011;13104;51.030;4.686;2023-05-10T08:59:10;35.17;;;19.73;;
25123;SDS011;13104;51.030;4.686;2023-05-10T09:01:38;35.72;;;20.13;;
25123;SDS011;13104;51.030;4.686;2023-05-10T09:04:04;38.28;;;19.23;;
25123;SDS011;13104;51.030;4.686;2023-05-10T09:06:31;41.55;;;19.98;;
25123;SDS011;13104;51.030;4.686;2023-05-10T09:08:57;36.75;;;19.45;;
25123;SDS011;13104;51.030;4.686;2023-05-10T09:11:24;39.60;;;19.38;;
25123;SDS011;13104;51.030;4.686;2023-05-10T09:13:50;33.45;;;18.50;;
25123;SDS011;13104;51.030;4.686;2023-05-10T09:16:16;33.92;;;17.90;;
25123;SDS011;13104;51.030;4.686;2023-05-10T09:18:42;36.88;;;17.35;;
25123;SDS011;13104;51.030;4.686;2023-05-10T09:21:09;33.83;;;16.45;;
25123;SDS011;13104;51.030;4.686;2023-05-10T09:23:35;31.48;;;17.30;;
25123;SDS011;13104;51.030;4.686;2023-05-10T09:26:04;31.67;;;18.00;;
25123;SDS011;13104;51.030;4.686;2023-05-10T09:28:34;27.13;;;17.00;;
25123;SDS011;13104;51.030;4.686;2023-05-10T09:31:00;30.08;;;16.60;;
25123;SDS011;13104;51.030;4.686;2023-05-10T09:33:26;26.80;;;14.30;;
25123;SDS011;13104;51.030;4.686;2023-05-10T09:35:52;26.17;;;15.18;;
25123;SDS011;13104;51.030;4.686;2023-05-10T09:38:18;25.35;;;13.88;;
25123;SDS011;13104;51.030;4.686;2023-05-10T09:40:50;25.02;;;14.70;;
25123;SDS011;13104;51.030;4.686;2023-05-10T09:43:20;26.67;;;14.20;;
25123;SDS011;13104;51.030;4.686;2023-05-10T09:45:47;24.85;;;12.90;;
25123;SDS011;13104;51.030;4.686;2023-05-10T09:48:15;26.50;;;13.02;;
25123;SDS011;13104;51.030;4.686;2023-05-10T09:50:41;23.25;;;12.82;;
25123;SDS011;13104;51.030;4.686;2023-05-10T09:53:07;26.05;;;12.73;;
25123;SDS011;13104;51.030;4.686;2023-05-10T09:55:43;23.83;;;12.93;;
25123;SDS011;13104;51.030;4.686;2023-05-10T09:58:10;22.90;;;12.25;;
25123;SDS011;13104;51.030;4.686;2023-05-10T10:00:37;20.08;;;12.02;;
25123;SDS011;13104;51.030;4.686;2023-05-10T10:03:03;24.80;;;12.30;;
25123;SDS011;13104;51.030;4.686;2023-05-10T10:05:30;20.83;;;12.40;;
25123;SDS011;13104;51.030;4.686;2023-05-10T10:07:57;23.58;;;11.95;;
25123;SDS011;13104;51.030;4.686;2023-05-10T10:10:26;19.83;;;11.55;;
25123;SDS011;13104;51.030;4.686;2023-05-10T10:12:53;20.85;;;12.07;;
25123;SDS011;13104;51.030;4.686;2023-05-10T10:15:20;19.15;;;11.75;;
25123;SDS011;13104;51.030;4.686;2023-05-10T10:17:46;19.40;;;11.57;;
25123;SDS011;13104;51.030;4.686;2023-05-10T10:20:14;17.85;;;11.73;;
25123;SDS011;13104;51.030;4.686;2023-05-10T10:22:40;23.98;;;11.20;;
25123;SDS011;13104;51.030;4.686;2023-05-10T10:25:08;17.30;;;10.65;;
25123;SDS011;13104;51.030;4.686;2023-05-10T10:32:38;15.90;;;10.70;;
25123;SDS011;13104;51.030;4.686;2023-05-10T10:35:08;18.88;;;11.10;;
25123;SDS011;13104;51.030;4.686;2023-05-10T10:37:41;18.23;;;10.35;;
25123;SDS011;13104;51.030;4.686;2023-05-10T10:42:54;17.88;;;10.35;;
25123;SDS011;13104;51.030;4.686;2023-05-10T10:45:21;16.58;;;10.32;;
25123;SDS011;13104;51.030;4.686;2023-05-10T10:47:47;15.63;;;10.05;;
25123;SDS011;13104;51.030;4.686;2023-05-10T10:50:14;14.35;;;10.20;;
25123;SDS011;13104;51.030;4.686;2023-05-10T10:52:43;17.17;;;10.48;;
25123;SDS011;13104;51.030;4.686;2023-05-10T10:55:11;19.25;;;10.10;;
25123;SDS011;13104;51.030;4.686;2023-05-10T11:02:43;14.90;;;9.93;;
25123;SDS011;13104;51.030;4.686;2023-05-10T11:05:23;16.77;;;10.30;;
25123;SDS011;13104;51.030;4.686;2023-05-10T11:10:20;17.00;;;10.05;;
25123;SDS011;13104;51.030;4.686;2023-05-10T11:12:53;14.70;;;10.05;;
25123;SDS011;13104;51.030;4.686;2023-05-10T11:15:20;16.95;;;9.43;;
25123;SDS011;13104;51.030;4.686;2023-05-10T11:17:54;12.07;;;8.80;;
25123;SDS011;13104;51.030;4.686;2023-05-10T11:20:20;14.77;;;8.88;;
25123;SDS011;13104;51.030;4.686;2023-05-10T11:22:50;15.15;;;8.40;;
25123;SDS011;13104;51.030;4.686;2023-05-10T11:25:16;11.52;;;8.00;;
25123;SDS011;13104;51.030;4.686;2023-05-10T11:27:43;11.77;;;7.63;;
25123;SDS011;13104;51.030;4.686;2023-05-10T11:30:09;14.00;;;8.52;;
25123;SDS011;13104;51.030;4.686;2023-05-10T11:32:39;9.43;;;7.63;;
25123;SDS011;13104;51.030;4.686;2023-05-10T11:35:09;10.32;;;7.45;;
25123;SDS011;13104;51.030;4.686;2023-05-10T11:37:36;11.35;;;7.53;;
25123;SDS011;13104;51.030;4.686;2023-05-10T11:40:06;14.00;;;8.77;;
25123;SDS011;13104;51.030;4.686;2023-05-10T11:42:32;8.93;;;7.72;;
25123;SDS011;13104;51.030;4.686;2023-05-10T11:45:00;13.27;;;8.50;;
25123;SDS011;13104;51.030;4.686;2023-05-10T11:47:26;12.05;;;8.02;;
25123;SDS011;13104;51.030;4.686;2023-05-10T11:49:52;11.65;;;7.28;;
25123;SDS011;13104;51.030;4.686;2023-05-10T11:52:18;12.80;;;8.10;;
25123;SDS011;13104;51.030;4.686;2023-05-10T11:54:50;10.60;;;7.60;;
25123;SDS011;13104;51.030;4.686;2023-05-10T11:57:17;11.77;;;7.00;;
25123;SDS011;13104;51.030;4.686;2023-05-10T11:59:44;10.73;;;7.10;;
25123;SDS011;13104;51.030;4.686;2023-05-10T12:02:10;8.80;;;6.30;;
25123;SDS011;13104;51.030;4.686;2023-05-10T12:04:37;9.95;;;6.88;;
25123;SDS011;13104;51.030;4.686;2023-05-10T12:07:03;10.82;;;6.88;;
25123;SDS011;13104;51.030;4.686;2023-05-10T12:09:29;9.90;;;7.03;;
25123;SDS011;13104;51.030;4.686;2023-05-10T12:11:55;8.40;;;6.50;;
25123;SDS011;13104;51.030;4.686;2023-05-10T12:14:22;9.52;;;6.50;;
25123;SDS011;13104;51.030;4.686;2023-05-10T12:16:49;9.50;;;6.18;;
25123;SDS011;13104;51.030;4.686;2023-05-10T12:19:19;11.63;;;6.22;;
25123;SDS011;13104;51.030;4.686;2023-05-10T12:21:46;11.10;;;6.22;;
25123;SDS011;13104;51.030;4.686;2023-05-10T12:24:12;8.25;;;5.63;;
25123;SDS011;13104;51.030;4.686;2023-05-10T12:26:41;11.73;;;5.35;;
25123;SDS011;13104;51.030;4.686;2023-05-10T12:29:17;10.02;;;5.47;;
25123;SDS011;13104;51.030;4.686;2023-05-10T12:31:59;10.50;;;5.75;;
25123;SDS011;13104;51.030;4.686;2023-05-10T12:36:52;8.48;;;5.35;;
25123;SDS011;13104;51.030;4.686;2023-05-10T12:39:18;9.13;;;4.75;;
25123;SDS011;13104;51.030;4.686;2023-05-10T12:41:44;8.57;;;5.57;;
25123;SDS011;13104;51.030;4.686;2023-05-10T12:44:10;5.53;;;4.53;;
25123;SDS011;13104;51.030;4.686;2023-05-10T12:46:36;8.50;;;4.93;;
25123;SDS011;13104;51.030;4.686;2023-05-10T12:49:03;6.75;;;5.10;;
25123;SDS011;13104;51.030;4.686;2023-05-10T12:51:29;6.97;;;5.32;;
25123;SDS011;13104;51.030;4.686;2023-05-10T12:53:55;8.10;;;5.07;;
25123;SDS011;13104;51.030;4.686;2023-05-10T12:56:21;8.02;;;5.70;;
25123;SDS011;13104;51.030;4.686;2023-05-10T12:58:48;11.30;;;5.80;;
25123;SDS011;13104;51.030;4.686;2023-05-10T13:01:14;9.45;;;5.22;;
25123;SDS011;13104;51.030;4.686;2023-05-10T13:03:41;9.02;;;5.78;;
25123;SDS011;13104;51.030;4.686;2023-05-10T13:06:08;8.82;;;5.97;;
25123;SDS011;13104;51.030;4.686;2023-05-10T13:08:34;7.50;;;5.68;;
25123;SDS011;13104;51.030;4.686;2023-05-10T13:11:01;10.50;;;6.72;;
25123;SDS011;13104;51.030;4.686;2023-05-10T13:13:27;9.57;;;6.40;;
25123;SDS011;13104;51.030;4.686;2023-05-10T13:15:53;11.15;;;6.20;;
25123;SDS011;13104;51.030;4.686;2023-05-10T13:18:19;10.07;;;6.15;;
25123;SDS011;13104;51.030;4.686;2023-05-10T13:20:45;9.60;;;5.63;;
25123;SDS011;13104;51.030;4.686;2023-05-10T13:23:12;9.65;;;5.63;;
25123;SDS011;13104;51.030;4.686;2023-05-10T13:25:38;7.72;;;5.85;;
25123;SDS011;13104;51.030;4.686;2023-05-10T13:28:04;11.02;;;6.13;;
25123;SDS011;13104;51.030;4.686;2023-05-10T13:30:30;10.60;;;6.55;;
25123;SDS011;13104;51.030;4.686;2023-05-10T13:32:56;14.02;;;6.43;;
25123;SDS011;13104;51.030;4.686;2023-05-10T13:35:23;9.88;;;6.22;;
25123;SDS011;13104;51.030;4.686;2023-05-10T13:37:49;9.25;;;6.03;;
25123;SDS011;13104;51.030;4.686;2023-05-10T13:40:15;9.18;;;5.93;;
25123;SDS011;13104;51.030;4.686;2023-05-10T13:42:41;8.82;;;6.05;;
25123;SDS011;13104;51.030;4.686;2023-05-10T13:45:07;9.50;;;5.90;;
25123;SDS011;13104;51.030;4.686;2023-05-10T13:47:34;11.27;;;5.60;;
25123;SDS011;13104;51.030;4.686;2023-05-10T13:50:01;9.57;;;5.80;;
25123;SDS011;13104;51.030;4.686;2023-05-10T13:52:28;9.95;;;5.93;;
25123;SDS011;13104;51.030;4.686;2023-05-10T13:54:54;11.63;;;5.95;;
25123;SDS011;13104;51.030;4.686;2023-05-10T13:57:20;7.75;;;5.15;;
25123;SDS011;13104;51.030;4.686;2023-05-10T13:59:47;9.43;;;5.20;;
25123;SDS011;13104;51.030;4.686;2023-05-10T14:02:13;10.43;;;5.30;;
25123;SDS011;13104;51.030;4.686;2023-05-10T14:04:39;9.93;;;5.53;;
25123;SDS011;13104;51.030;4.686;2023-05-10T14:07:05;9.10;;;5.57;;
25123;SDS011;13104;51.030;4.686;2023-05-10T14:09:31;9.95;;;5.25;;
25123;SDS011;13104;51.030;4.686;2023-05-10T14:11:58;10.68;;;5.55;;
25123;SDS011;13104;51.030;4.686;2023-05-10T14:14:24;16.17;;;5.55;;
25123;SDS011;13104;51.030;4.686;2023-05-10T14:16:50;8.27;;;5.20;;
25123;SDS011;13104;51.030;4.686;2023-05-10T14:19:16;11.25;;;5.13;;
25123;SDS011;13104;51.030;4.686;2023-05-10T14:21:43;14.27;;;5.47;;
25123;SDS011;13104;51.030;4.686;2023-05-10T14:24:09;12.65;;;5.95;;
25123;SDS011;13104;51.030;4.686;2023-05-10T14:26:35;17.95;;;6.97;;
25123;SDS011;13104;51.030;4.686;2023-05-10T14:29:01;10.98;;;6.90;;
25123;SDS011;13104;51.030;4.686;2023-05-10T14:31:27;13.02;;;7.45;;
25123;SDS011;13104;51.030;4.686;2023-05-10T14:33:55;16.83;;;8.85;;
25123;SDS011;13104;51.030;4.686;2023-05-10T14:36:22;11.20;;;7.28;;
25123;SDS011;13104;51.030;4.686;2023-05-10T14:38:48;10.35;;;6.88;;
25123;SDS011;13104;51.030;4.686;2023-05-10T14:41:15;72.65;;;17.58;;
25123;SDS011;13104;51.030;4.686;2023-05-10T14:43:42;12.13;;;7.60;;
25123;SDS011;13104;51.030;4.686;2023-05-10T14:46:08;21.48;;;9.35;;
25123;SDS011;13104;51.030;4.686;2023-05-10T14:48:35;10.73;;;7.32;;
25123;SDS011;13104;51.030;4.686;2023-05-10T14:51:01;13.48;;;7.93;;
25123;SDS011;13104;51.030;4.686;2023-05-10T14:53:28;12.77;;;7.82;;
25123;SDS011;13104;51.030;4.686;2023-05-10T14:55:54;13.07;;;7.43;;